PWSweather.com
Personal Weather Stations
Station Observations
WESTON01
WestonSuperMareGB BS22 8RT

WestonSuperMareGB BS22 8RT

Lat: 51.351508, Lon: -2.933373

Elevation: 15

Station Type: Fine Offset WH1080

http://www.westonweather.co.uk

Latest ConditionsUpdated 11:10:01 PM GMT Tuesday, Mar 26, 2019
Currently Today's Max Today's Min Today's Average
Temperature 39.8°F4.3°C 58.9°F14.9°C 30.5°F-0.8°C 44.8°F7.1°C
Dew Point 32.2°F0.1°C 41.4°F5.2°C 24.4°F-4.2°C 33.2°F0.7°C
Winds 0.5 mph N0.8 kmh N 12.0 mph -19.3 kmh - - 3.4 mph 5.5 kmh
Wind Gusts 2.7 mph4.3 kmh 17.3 mph27.8 kmh - -
Humidity 74% 85% 46% 65%
Pressure 30.47 in1031.8 mb 30.53 in1033.9 mb 30.44 in1030.8 mb -
Hour Temp Dew Point Humidity Winds Wind Gusts Pressure Precip Precip Rate Daily Precip Total
11:10 PM 39.8°F4.3°C 32.2°F0.1°C 74% 0.5 mph N0.8 kmh N 2.7 mph4.3 kmh 30.47 in1031.8 mb 0.00 in0.0 mm 0.00 in0.0 mm 0.00 in0.0 mm
11:05 PM 39.8°F4.3°C 32.2°F0.1°C 74% 0.2 mph E0.3 kmh E 1.8 mph2.9 kmh 30.47 in1031.8 mb 0.00 in0.0 mm 0.00 in0.0 mm 0.00 in0.0 mm
11:00 PM 40.0°F4.4°C 32.4°F0.2°C 74% 0.9 mph NE1.4 kmh NE 3.9 mph6.3 kmh 30.47 in1031.8 mb 0.00 in0.0 mm 0.00 in0.0 mm 0.00 in0.0 mm
10:55 PM 39.8°F4.3°C 31.9°F-0.1°C 73% 1.1 mph NNE1.8 kmh NNE 3.9 mph6.3 kmh 30.47 in1031.8 mb 0.00 in0.0 mm 0.00 in0.0 mm 0.00 in0.0 mm
10:50 PM 39.8°F4.3°C 31.9°F-0.1°C 73% 0.3 mph NNE0.5 kmh NNE 2.7 mph4.3 kmh 30.47 in1031.8 mb 0.00 in0.0 mm 0.00 in0.0 mm 0.00 in0.0 mm
10:45 PM 39.8°F4.3°C 31.9°F-0.1°C 73% Calm Calm -- 30.47 in1031.8 mb 0.00 in0.0 mm 0.00 in0.0 mm 0.00 in0.0 mm
10:40 PM 40.0°F4.4°C 31.7°F-0.2°C 72% Calm Calm -- 30.47 in1031.8 mb 0.00 in0.0 mm 0.00 in0.0 mm 0.00 in0.0 mm
10:35 PM 40.0°F4.4°C 31.7°F-0.2°C 72% Calm Calm -- 30.47 in1031.8 mb 0.00 in0.0 mm 0.00 in0.0 mm 0.00 in0.0 mm
10:30 PM 40.4°F4.7°C 32.1°F0.1°C 72% 0.2 mph NE0.3 kmh NE 1.5 mph2.4 kmh 30.47 in1031.8 mb 0.00 in0.0 mm 0.00 in0.0 mm 0.00 in0.0 mm
10:25 PM 40.5°F4.7°C 32.2°F0.1°C 72% 1.1 mph NE1.8 kmh NE 3.9 mph6.3 kmh 30.47 in1031.8 mb 0.00 in0.0 mm 0.00 in0.0 mm 0.00 in0.0 mm
10:20 PM 40.9°F4.9°C 32.2°F0.1°C 71% 1.2 mph NNE1.9 kmh NNE 3.9 mph6.3 kmh 30.47 in1031.8 mb 0.00 in0.0 mm 0.00 in0.0 mm 0.00 in0.0 mm
10:15 PM 40.9°F4.9°C 32.2°F0.1°C 71% 0.4 mph N0.6 kmh N 2.7 mph4.3 kmh 30.47 in1031.8 mb 0.00 in0.0 mm 0.00 in0.0 mm 0.00 in0.0 mm
10:10 PM 41.1°F5.1°C 32.4°F0.2°C 71% Calm Calm -- 30.47 in1031.8 mb 0.00 in0.0 mm 0.00 in0.0 mm 0.00 in0.0 mm
10:05 PM 41.3°F5.2°C 32.2°F0.1°C 70% Calm Calm -- 30.47 in1031.8 mb 0.00 in0.0 mm 0.00 in0.0 mm 0.00 in0.0 mm
10:00 PM 41.5°F5.3°C 32.4°F0.2°C 70% Calm Calm -- 30.47 in1031.8 mb 0.00 in0.0 mm 0.00 in0.0 mm 0.00 in0.0 mm
09:55 PM 41.6°F5.3°C 32.2°F0.1°C 69% Calm Calm -- 30.47 in1031.8 mb 0.00 in0.0 mm 0.00 in0.0 mm 0.00 in0.0 mm
09:50 PM 42.0°F5.6°C 32.2°F0.1°C 68% Calm Calm -- 30.47 in1031.8 mb 0.00 in0.0 mm 0.00 in0.0 mm 0.00 in0.0 mm
09:45 PM 42.2°F5.7°C 32.4°F0.2°C 68% Calm Calm -- 30.47 in1031.8 mb 0.00 in0.0 mm 0.00 in0.0 mm 0.00 in0.0 mm
09:40 PM 42.5°F5.8°C 32.3°F0.2°C 67% Calm Calm -- 30.47 in1031.8 mb 0.00 in0.0 mm 0.00 in0.0 mm 0.00 in0.0 mm
09:35 PM 42.9°F6.1°C 32.7°F0.4°C 67% Calm Calm -- 30.47 in1031.8 mb 0.00 in0.0 mm 0.00 in0.0 mm 0.00 in0.0 mm
09:30 PM 43.6°F6.4°C 33.4°F0.8°C 67% Calm Calm -- 30.47 in1031.8 mb 0.00 in0.0 mm 0.00 in0.0 mm 0.00 in0.0 mm
09:25 PM 44.2°F6.8°C 33.9°F1.1°C 67% 0.1 mph N0.2 kmh N 1.2 mph1.9 kmh 30.47 in1031.8 mb 0.00 in0.0 mm 0.00 in0.0 mm 0.00 in0.0 mm
09:20 PM 44.9°F7.2°C 34.9°F1.6°C 68% 1.0 mph N1.6 kmh N 3.3 mph5.3 kmh 30.47 in1031.8 mb 0.00 in0.0 mm 0.00 in0.0 mm 0.00 in0.0 mm
09:15 PM 45.0°F7.2°C 35.1°F1.7°C 68% 2.1 mph NNW3.4 kmh NNW 3.6 mph5.8 kmh 30.47 in1031.8 mb 0.00 in0.0 mm 0.00 in0.0 mm 0.00 in0.0 mm
09:10 PM 45.2°F7.3°C 35.3°F1.8°C 68% 3.1 mph NW5.0 kmh NW 4.5 mph7.2 kmh 30.47 in1031.8 mb 0.00 in0.0 mm 0.00 in0.0 mm 0.00 in0.0 mm
09:05 PM 45.4°F7.4°C 35.5°F1.9°C 68% 3.4 mph NW5.5 kmh NW 4.5 mph7.2 kmh 30.47 in1031.8 mb 0.00 in0.0 mm 0.00 in0.0 mm 0.00 in0.0 mm
09:00 PM 45.6°F7.6°C 35.6°F2.0°C 68% 3.9 mph NW6.3 kmh NW 5.4 mph8.7 kmh 30.47 in1031.8 mb 0.00 in0.0 mm 0.00 in0.0 mm 0.00 in0.0 mm
08:55 PM 46.0°F7.8°C 36.0°F2.2°C 68% 3.5 mph NW5.6 kmh NW 5.4 mph8.7 kmh 30.47 in1031.8 mb 0.00 in0.0 mm 0.00 in0.0 mm 0.00 in0.0 mm
08:50 PM 46.1°F7.8°C 36.1°F2.3°C 68% 3.0 mph NNW4.8 kmh NNW 4.8 mph7.7 kmh 30.47 in1031.8 mb 0.00 in0.0 mm 0.00 in0.0 mm 0.00 in0.0 mm
08:45 PM 46.1°F7.8°C 36.1°F2.3°C 68% 3.9 mph NW6.3 kmh NW 5.7 mph9.2 kmh 30.47 in1031.8 mb 0.00 in0.0 mm 0.00 in0.0 mm 0.00 in0.0 mm
08:40 PM 46.3°F7.9°C 35.9°F2.2°C 67% 4.5 mph NW7.2 kmh NW 5.7 mph9.2 kmh 30.47 in1031.8 mb 0.00 in0.0 mm 0.00 in0.0 mm 0.00 in0.0 mm
08:35 PM 46.3°F7.9°C 35.9°F2.2°C 67% 4.8 mph NW7.7 kmh NW 5.7 mph9.2 kmh 30.47 in1031.8 mb 0.00 in0.0 mm 0.00 in0.0 mm 0.00 in0.0 mm
08:30 PM 46.3°F7.9°C 35.9°F2.2°C 67% 4.4 mph NW7.1 kmh NW 5.7 mph9.2 kmh 30.47 in1031.8 mb 0.00 in0.0 mm 0.00 in0.0 mm 0.00 in0.0 mm
08:25 PM 46.5°F8.1°C 35.7°F2.1°C 66% 3.5 mph NW5.6 kmh NW 5.7 mph9.2 kmh 30.47 in1031.8 mb 0.00 in0.0 mm 0.00 in0.0 mm 0.00 in0.0 mm
08:20 PM 46.5°F8.1°C 35.4°F1.9°C 65% 3.8 mph NW6.1 kmh NW 5.4 mph8.7 kmh 30.47 in1031.8 mb 0.00 in0.0 mm 0.00 in0.0 mm 0.00 in0.0 mm
08:15 PM 46.7°F8.2°C 35.5°F1.9°C 65% 4.4 mph NW7.1 kmh NW 5.4 mph8.7 kmh 30.47 in1031.8 mb 0.00 in0.0 mm 0.00 in0.0 mm 0.00 in0.0 mm
08:10 PM 46.7°F8.2°C 35.1°F1.7°C 64% 4.4 mph NW7.1 kmh NW 5.4 mph8.7 kmh 30.47 in1031.8 mb 0.00 in0.0 mm 0.00 in0.0 mm 0.00 in0.0 mm
08:05 PM 46.7°F8.2°C 35.1°F1.7°C 64% 5.1 mph NW8.2 kmh NW 7.1 mph11.4 kmh 30.47 in1031.8 mb 0.00 in0.0 mm 0.00 in0.0 mm 0.00 in0.0 mm
08:00 PM 46.8°F8.2°C 34.9°F1.6°C 63% 5.2 mph WNW8.4 kmh WNW 9.2 mph14.8 kmh 30.47 in1031.8 mb 0.00 in0.0 mm 0.00 in0.0 mm 0.00 in0.0 mm
07:55 PM 46.8°F8.2°C 34.9°F1.6°C 63% 6.0 mph NW9.7 kmh NW 10.4 mph16.7 kmh 30.44 in1030.8 mb 0.00 in0.0 mm 0.00 in0.0 mm 0.00 in0.0 mm
07:50 PM 47.0°F8.3°C 34.3°F1.3°C 61% 6.9 mph NW11.1 kmh NW 10.4 mph16.7 kmh 30.44 in1030.8 mb 0.00 in0.0 mm 0.00 in0.0 mm 0.00 in0.0 mm
07:45 PM 47.4°F8.6°C 34.6°F1.4°C 61% 6.5 mph NW10.5 kmh NW 8.6 mph13.8 kmh 30.44 in1030.8 mb 0.00 in0.0 mm 0.00 in0.0 mm 0.00 in0.0 mm
07:40 PM 47.4°F8.6°C 34.6°F1.4°C 61% 7.5 mph NW12.1 kmh NW 13.1 mph21.1 kmh 30.44 in1030.8 mb 0.00 in0.0 mm 0.00 in0.0 mm 0.00 in0.0 mm
07:35 PM 47.4°F8.6°C 34.2°F1.2°C 60% 8.4 mph NW13.5 kmh NW 13.1 mph21.1 kmh 30.44 in1030.8 mb 0.00 in0.0 mm 0.00 in0.0 mm 0.00 in0.0 mm
07:30 PM 47.6°F8.7°C 33.9°F1.1°C 59% 7.0 mph NW11.3 kmh NW 13.1 mph21.1 kmh 30.44 in1030.8 mb 0.00 in0.0 mm 0.00 in0.0 mm 0.00 in0.0 mm
07:25 PM 47.6°F8.7°C 33.9°F1.1°C 59% 5.8 mph NW9.3 kmh NW 11.3 mph18.2 kmh 30.44 in1030.8 mb 0.00 in0.0 mm 0.00 in0.0 mm 0.00 in0.0 mm
07:20 PM 47.8°F8.8°C 33.7°F0.9°C 58% 6.1 mph NW9.8 kmh NW 11.3 mph18.2 kmh 30.44 in1030.8 mb 0.00 in0.0 mm 0.00 in0.0 mm 0.00 in0.0 mm
07:15 PM 47.9°F8.8°C 33.9°F1.1°C 58% 8.1 mph NW13.0 kmh NW 14.0 mph22.5 kmh 30.44 in1030.8 mb 0.00 in0.0 mm 0.00 in0.0 mm 0.00 in0.0 mm
07:10 PM 47.9°F8.8°C 33.4°F0.8°C 57% 8.6 mph NW13.8 kmh NW 14.0 mph22.5 kmh 30.47 in1031.8 mb 0.00 in0.0 mm 0.00 in0.0 mm 0.00 in0.0 mm
07:05 PM 48.1°F8.9°C 33.6°F0.9°C 57% 7.9 mph NW12.7 kmh NW 10.7 mph17.2 kmh 30.47 in1031.8 mb 0.00 in0.0 mm 0.00 in0.0 mm 0.00 in0.0 mm
07:00 PM 48.1°F8.9°C 33.6°F0.9°C 57% 10.8 mph WNW17.4 kmh WNW 17.3 mph27.8 kmh 30.47 in1031.8 mb 0.00 in0.0 mm 0.00 in0.0 mm 0.00 in0.0 mm
06:55 PM 48.3°F9.1°C 33.3°F0.7°C 56% 12.0 mph WNW19.3 kmh WNW 17.3 mph27.8 kmh 30.44 in1030.8 mb 0.00 in0.0 mm 0.00 in0.0 mm 0.00 in0.0 mm
06:50 PM 48.5°F9.2°C 33.5°F0.8°C 56% 10.4 mph WNW16.7 kmh WNW 14.3 mph23.0 kmh 30.44 in1030.8 mb 0.00 in0.0 mm 0.00 in0.0 mm 0.00 in0.0 mm
06:45 PM 48.7°F9.3°C 33.6°F0.9°C 56% 10.7 mph WNW17.2 kmh WNW 17.3 mph27.8 kmh 30.44 in1030.8 mb 0.00 in0.0 mm 0.00 in0.0 mm 0.00 in0.0 mm
06:40 PM 48.8°F9.3°C 33.4°F0.8°C 55% 10.2 mph WNW16.4 kmh WNW 17.3 mph27.8 kmh 30.44 in1030.8 mb 0.00 in0.0 mm 0.00 in0.0 mm 0.00 in0.0 mm
06:35 PM 48.8°F9.3°C 33.4°F0.8°C 55% 8.3 mph WNW13.4 kmh WNW 14.0 mph22.5 kmh 30.44 in1030.8 mb 0.00 in0.0 mm 0.00 in0.0 mm 0.00 in0.0 mm
06:30 PM 49.0°F9.4°C 33.5°F0.8°C 55% 8.2 mph WNW13.2 kmh WNW 12.8 mph20.6 kmh 30.44 in1030.8 mb 0.00 in0.0 mm 0.00 in0.0 mm 0.00 in0.0 mm
06:25 PM 49.0°F9.4°C 33.5°F0.8°C 55% 7.7 mph WNW12.4 kmh WNW 12.8 mph20.6 kmh 30.44 in1030.8 mb 0.00 in0.0 mm 0.00 in0.0 mm 0.00 in0.0 mm
06:20 PM 49.2°F9.6°C 33.7°F0.9°C 55% 7.5 mph WNW12.1 kmh WNW 11.6 mph18.7 kmh 30.44 in1030.8 mb 0.00 in0.0 mm 0.00 in0.0 mm 0.00 in0.0 mm
06:15 PM 49.4°F9.7°C 33.9°F1.1°C 55% 10.0 mph WNW16.1 kmh WNW 17.3 mph27.8 kmh 30.44 in1030.8 mb 0.00 in0.0 mm 0.00 in0.0 mm 0.00 in0.0 mm
06:10 PM 49.5°F9.7°C 34.5°F1.4°C 56% 9.3 mph WNW15.0 kmh WNW 17.3 mph27.8 kmh 30.44 in1030.8 mb 0.00 in0.0 mm 0.00 in0.0 mm 0.00 in0.0 mm
06:05 PM 49.5°F9.7°C 34.5°F1.4°C 56% 7.6 mph WNW12.2 kmh WNW 11.6 mph18.7 kmh 30.44 in1030.8 mb 0.00 in0.0 mm 0.00 in0.0 mm 0.00 in0.0 mm
06:00 PM 49.9°F9.9°C 34.8°F1.6°C 56% 6.7 mph W10.8 kmh W 11.6 mph18.7 kmh 30.44 in1030.8 mb 0.00 in0.0 mm 0.00 in0.0 mm 0.00 in0.0 mm
05:55 PM 50.1°F10.1°C 35.0°F1.7°C 56% 6.1 mph W9.8 kmh W 11.3 mph18.2 kmh 30.44 in1030.8 mb 0.00 in0.0 mm 0.00 in0.0 mm 0.00 in0.0 mm
05:50 PM 50.5°F10.3°C 34.9°F1.6°C 55% 6.7 mph W10.8 kmh W 13.1 mph21.1 kmh 30.44 in1030.8 mb 0.00 in0.0 mm 0.00 in0.0 mm 0.00 in0.0 mm
05:45 PM 50.6°F10.3°C 34.6°F1.4°C 54% 7.0 mph W11.3 kmh W 13.1 mph21.1 kmh 30.44 in1030.8 mb 0.00 in0.0 mm 0.00 in0.0 mm 0.00 in0.0 mm
05:40 PM 50.8°F10.4°C 34.7°F1.5°C 54% 7.8 mph WSW12.6 kmh WSW 10.1 mph16.3 kmh 30.44 in1030.8 mb 0.00 in0.0 mm 0.00 in0.0 mm 0.00 in0.0 mm
05:35 PM 51.2°F10.7°C 34.6°F1.4°C 53% 7.9 mph W12.7 kmh W 10.7 mph17.2 kmh 30.44 in1030.8 mb 0.00 in0.0 mm 0.00 in0.0 mm 0.00 in0.0 mm
05:30 PM 51.5°F10.8°C 34.5°F1.4°C 52% 7.6 mph W12.2 kmh W 14.0 mph22.5 kmh 30.44 in1030.8 mb 0.00 in0.0 mm 0.00 in0.0 mm 0.00 in0.0 mm
05:25 PM 52.4°F11.3°C 34.8°F1.6°C 51% 9.4 mph W15.1 kmh W 14.3 mph23.0 kmh 30.44 in1030.8 mb 0.00 in0.0 mm 0.00 in0.0 mm 0.00 in0.0 mm
05:20 PM 53.0°F11.7°C 34.8°F1.6°C 50% 10.3 mph W16.6 kmh W 14.3 mph23.0 kmh 30.44 in1030.8 mb 0.00 in0.0 mm 0.00 in0.0 mm 0.00 in0.0 mm
05:15 PM 53.5°F11.9°C 35.3°F1.8°C 50% 8.3 mph W13.4 kmh W 13.4 mph21.6 kmh 30.44 in1030.8 mb 0.00 in0.0 mm 0.00 in0.0 mm 0.00 in0.0 mm
05:10 PM 53.7°F12.1°C 35.5°F1.9°C 50% 6.8 mph W10.9 kmh W 13.4 mph21.6 kmh 30.44 in1030.8 mb 0.00 in0.0 mm 0.00 in0.0 mm 0.00 in0.0 mm
05:05 PM 54.0°F12.2°C 35.8°F2.1°C 50% 5.7 mph W9.2 kmh W 8.0 mph12.9 kmh 30.44 in1030.8 mb 0.00 in0.0 mm 0.00 in0.0 mm 0.00 in0.0 mm
05:00 PM 54.2°F12.3°C 35.5°F1.9°C 49% 6.4 mph W10.3 kmh W 9.8 mph15.8 kmh 30.44 in1030.8 mb 0.00 in0.0 mm 0.00 in0.0 mm 0.00 in0.0 mm
04:55 PM 54.2°F12.3°C 35.5°F1.9°C 49% 8.1 mph W13.0 kmh W 11.3 mph18.2 kmh 30.44 in1030.8 mb 0.00 in0.0 mm 0.00 in0.0 mm 0.00 in0.0 mm
04:50 PM 54.4°F12.4°C 35.6°F2.0°C 49% 8.1 mph W13.0 kmh W 11.3 mph18.2 kmh 30.44 in1030.8 mb 0.00 in0.0 mm 0.00 in0.0 mm 0.00 in0.0 mm
04:45 PM 54.4°F12.4°C 35.6°F2.0°C 49% 7.5 mph W12.1 kmh W 10.7 mph17.2 kmh 30.44 in1030.8 mb 0.00 in0.0 mm 0.00 in0.0 mm 0.00 in0.0 mm
04:40 PM 54.4°F12.4°C 35.6°F2.0°C 49% 8.1 mph W13.0 kmh W 10.7 mph17.2 kmh 30.44 in1030.8 mb 0.00 in0.0 mm 0.00 in0.0 mm 0.00 in0.0 mm
04:35 PM 54.8°F12.7°C 35.4°F1.9°C 48% 8.6 mph W13.8 kmh W 11.3 mph18.2 kmh 30.44 in1030.8 mb 0.00 in0.0 mm 0.00 in0.0 mm 0.00 in0.0 mm
04:30 PM 55.0°F12.8°C 35.6°F2.0°C 48% 7.9 mph W12.7 kmh W 11.3 mph18.2 kmh 30.44 in1030.8 mb 0.00 in0.0 mm 0.00 in0.0 mm 0.00 in0.0 mm
04:25 PM 55.0°F12.8°C 35.6°F2.0°C 48% 9.2 mph WSW14.8 kmh WSW 15.8 mph25.4 kmh 30.44 in1030.8 mb 0.00 in0.0 mm 0.00 in0.0 mm 0.00 in0.0 mm
04:20 PM 55.5°F13.1°C 36.1°F2.3°C 48% 10.7 mph WSW17.2 kmh WSW 15.8 mph25.4 kmh 30.44 in1030.8 mb 0.00 in0.0 mm 0.00 in0.0 mm 0.00 in0.0 mm
04:15 PM 55.5°F13.1°C 36.1°F2.3°C 48% 8.9 mph W14.3 kmh W 12.8 mph20.6 kmh 30.44 in1030.8 mb 0.00 in0.0 mm 0.00 in0.0 mm 0.00 in0.0 mm
04:10 PM 55.8°F13.2°C 36.4°F2.4°C 48% 6.7 mph W10.8 kmh W 9.2 mph14.8 kmh 30.44 in1030.8 mb 0.00 in0.0 mm 0.00 in0.0 mm 0.00 in0.0 mm
04:05 PM 55.7°F13.2°C 36.3°F2.4°C 48% 7.5 mph W12.1 kmh W 10.4 mph16.7 kmh 30.44 in1030.8 mb 0.00 in0.0 mm 0.00 in0.0 mm 0.00 in0.0 mm
04:00 PM 55.8°F13.2°C 36.4°F2.4°C 48% 9.1 mph WSW14.6 kmh WSW 13.1 mph21.1 kmh 30.44 in1030.8 mb 0.00 in0.0 mm 0.00 in0.0 mm 0.00 in0.0 mm
03:55 PM 56.0°F13.3°C 36.1°F2.3°C 47% 8.5 mph W13.7 kmh W 13.1 mph21.1 kmh 30.47 in1031.8 mb 0.00 in0.0 mm 0.00 in0.0 mm 0.00 in0.0 mm
03:50 PM 56.2°F13.4°C 36.2°F2.3°C 47% 8.1 mph WNW13.0 kmh WNW 11.3 mph18.2 kmh 30.47 in1031.8 mb 0.00 in0.0 mm 0.00 in0.0 mm 0.00 in0.0 mm
03:45 PM 56.4°F13.6°C 36.4°F2.4°C 47% 8.8 mph WNW14.2 kmh WNW 11.6 mph18.7 kmh 30.47 in1031.8 mb 0.00 in0.0 mm 0.00 in0.0 mm 0.00 in0.0 mm
03:40 PM 56.4°F13.6°C 36.4°F2.4°C 47% 9.0 mph WNW14.5 kmh WNW 11.6 mph18.7 kmh 30.47 in1031.8 mb 0.00 in0.0 mm 0.00 in0.0 mm 0.00 in0.0 mm
03:35 PM 56.6°F13.7°C 36.6°F2.6°C 47% 8.5 mph WNW13.7 kmh WNW 11.6 mph18.7 kmh 30.47 in1031.8 mb 0.00 in0.0 mm 0.00 in0.0 mm 0.00 in0.0 mm
03:30 PM 56.6°F13.7°C 36.6°F2.6°C 47% 8.1 mph W13.0 kmh W 12.8 mph20.6 kmh 30.47 in1031.8 mb 0.00 in0.0 mm 0.00 in0.0 mm 0.00 in0.0 mm
03:25 PM 56.4°F13.6°C 36.4°F2.4°C 47% 9.6 mph WSW15.4 kmh WSW 13.1 mph21.1 kmh 30.47 in1031.8 mb 0.00 in0.0 mm 0.00 in0.0 mm 0.00 in0.0 mm
03:20 PM 56.4°F13.6°C 36.4°F2.4°C 47% 8.8 mph WSW14.2 kmh WSW 13.1 mph21.1 kmh 30.47 in1031.8 mb 0.00 in0.0 mm 0.00 in0.0 mm 0.00 in0.0 mm
03:15 PM 56.6°F13.7°C 36.6°F2.6°C 47% 9.7 mph W15.6 kmh W 13.1 mph21.1 kmh 30.47 in1031.8 mb 0.00 in0.0 mm 0.00 in0.0 mm 0.00 in0.0 mm
03:10 PM 56.6°F13.7°C 36.6°F2.6°C 47% 10.0 mph W16.1 kmh W 13.1 mph21.1 kmh 30.47 in1031.8 mb 0.00 in0.0 mm 0.00 in0.0 mm 0.00 in0.0 mm
03:05 PM 57.1°F13.9°C 37.1°F2.8°C 47% 8.7 mph W14.0 kmh W 12.8 mph20.6 kmh 30.47 in1031.8 mb 0.00 in0.0 mm 0.00 in0.0 mm 0.00 in0.0 mm
03:00 PM 57.3°F14.1°C 37.2°F2.9°C 47% 8.4 mph WSW13.5 kmh WSW 11.6 mph18.7 kmh 30.47 in1031.8 mb 0.00 in0.0 mm 0.00 in0.0 mm 0.00 in0.0 mm
02:55 PM 57.3°F14.1°C 37.2°F2.9°C 47% 7.8 mph W12.6 kmh W 11.6 mph18.7 kmh 30.47 in1031.8 mb 0.00 in0.0 mm 0.00 in0.0 mm 0.00 in0.0 mm
02:50 PM 57.8°F14.3°C 37.2°F2.9°C 46% 8.0 mph W12.9 kmh W 11.6 mph18.7 kmh 30.47 in1031.8 mb 0.00 in0.0 mm 0.00 in0.0 mm 0.00 in0.0 mm
02:45 PM 58.0°F14.4°C 37.9°F3.3°C 47% 7.4 mph W11.9 kmh W 10.7 mph17.2 kmh 30.47 in1031.8 mb 0.00 in0.0 mm 0.00 in0.0 mm 0.00 in0.0 mm
02:40 PM 58.0°F14.4°C 37.9°F3.3°C 47% 7.6 mph W12.2 kmh W 10.7 mph17.2 kmh 30.47 in1031.8 mb 0.00 in0.0 mm 0.00 in0.0 mm 0.00 in0.0 mm
02:35 PM 58.4°F14.7°C 38.2°F3.4°C 47% 7.2 mph WSW11.6 kmh WSW 9.8 mph15.8 kmh 30.47 in1031.8 mb 0.00 in0.0 mm 0.00 in0.0 mm 0.00 in0.0 mm
02:30 PM 58.5°F14.7°C 37.8°F3.2°C 46% 6.5 mph W10.5 kmh W 10.1 mph16.3 kmh 30.47 in1031.8 mb 0.00 in0.0 mm 0.00 in0.0 mm 0.00 in0.0 mm
02:25 PM 58.5°F14.7°C 38.4°F3.6°C 47% 6.7 mph NW10.8 kmh NW 10.7 mph17.2 kmh 30.47 in1031.8 mb 0.00 in0.0 mm 0.00 in0.0 mm 0.00 in0.0 mm
02:20 PM 58.4°F14.7°C 38.2°F3.4°C 47% 8.6 mph W13.8 kmh W 11.6 mph18.7 kmh 30.47 in1031.8 mb 0.00 in0.0 mm 0.00 in0.0 mm 0.00 in0.0 mm
02:15 PM 58.5°F14.7°C 38.4°F3.6°C 47% 9.2 mph W14.8 kmh W 11.6 mph18.7 kmh 30.47 in1031.8 mb 0.00 in0.0 mm 0.00 in0.0 mm 0.00 in0.0 mm
02:10 PM 58.9°F14.9°C 38.7°F3.7°C 47% 7.5 mph W12.1 kmh W 9.8 mph15.8 kmh 30.44 in1030.8 mb 0.00 in0.0 mm 0.00 in0.0 mm 0.00 in0.0 mm
02:05 PM 58.9°F14.9°C 38.7°F3.7°C 47% 5.7 mph W9.2 kmh W 9.8 mph15.8 kmh 30.44 in1030.8 mb 0.00 in0.0 mm 0.00 in0.0 mm 0.00 in0.0 mm
02:00 PM 58.9°F14.9°C 38.7°F3.7°C 47% 6.4 mph W10.3 kmh W 8.6 mph13.8 kmh 30.44 in1030.8 mb 0.00 in0.0 mm 0.00 in0.0 mm 0.00 in0.0 mm
01:55 PM 58.5°F14.7°C 38.4°F3.6°C 47% 6.9 mph W11.1 kmh W 8.0 mph12.9 kmh 30.47 in1031.8 mb 0.00 in0.0 mm 0.00 in0.0 mm 0.00 in0.0 mm
01:50 PM 58.9°F14.9°C 38.7°F3.7°C 47% 6.2 mph W10.0 kmh W 8.0 mph12.9 kmh 30.47 in1031.8 mb 0.00 in0.0 mm 0.00 in0.0 mm 0.00 in0.0 mm
01:45 PM 58.4°F14.7°C 38.2°F3.4°C 47% 5.1 mph WSW8.2 kmh WSW 7.7 mph12.4 kmh 30.47 in1031.8 mb 0.00 in0.0 mm 0.00 in0.0 mm 0.00 in0.0 mm
01:40 PM 58.2°F14.6°C 38.0°F3.3°C 47% 5.8 mph WSW9.3 kmh WSW 9.5 mph15.3 kmh 30.47 in1031.8 mb 0.00 in0.0 mm 0.00 in0.0 mm 0.00 in0.0 mm
01:35 PM 58.2°F14.6°C 38.0°F3.3°C 47% 7.0 mph WSW11.3 kmh WSW 10.1 mph16.3 kmh 30.47 in1031.8 mb 0.00 in0.0 mm 0.00 in0.0 mm 0.00 in0.0 mm
01:30 PM 58.5°F14.7°C 38.9°F3.8°C 48% 6.5 mph W10.5 kmh W 10.1 mph16.3 kmh 30.47 in1031.8 mb 0.00 in0.0 mm 0.00 in0.0 mm 0.00 in0.0 mm
01:25 PM 58.5°F14.7°C 38.9°F3.8°C 48% 6.1 mph W9.8 kmh W 10.1 mph16.3 kmh 30.47 in1031.8 mb 0.00 in0.0 mm 0.00 in0.0 mm 0.00 in0.0 mm
01:20 PM 58.4°F14.7°C 38.7°F3.7°C 48% 6.9 mph W11.1 kmh W 10.4 mph16.7 kmh 30.47 in1031.8 mb 0.00 in0.0 mm 0.00 in0.0 mm 0.00 in0.0 mm
01:15 PM 58.2°F14.6°C 38.6°F3.7°C 48% 7.3 mph W11.7 kmh W 10.4 mph16.7 kmh 30.47 in1031.8 mb 0.00 in0.0 mm 0.00 in0.0 mm 0.00 in0.0 mm
01:10 PM 58.2°F14.6°C 39.1°F3.9°C 49% 6.1 mph W9.8 kmh W 8.0 mph12.9 kmh 30.47 in1031.8 mb 0.00 in0.0 mm 0.00 in0.0 mm 0.00 in0.0 mm
01:05 PM 58.2°F14.6°C 39.1°F3.9°C 49% 5.5 mph WSW8.9 kmh WSW 8.6 mph13.8 kmh 30.47 in1031.8 mb 0.00 in0.0 mm 0.00 in0.0 mm 0.00 in0.0 mm
01:00 PM 58.0°F14.4°C 38.9°F3.8°C 49% 5.1 mph WSW8.2 kmh WSW 8.6 mph13.8 kmh 30.47 in1031.8 mb 0.00 in0.0 mm 0.00 in0.0 mm 0.00 in0.0 mm
12:55 PM 58.2°F14.6°C 39.1°F3.9°C 49% 4.1 mph W6.6 kmh W 5.7 mph9.2 kmh 30.47 in1031.8 mb 0.00 in0.0 mm 0.00 in0.0 mm 0.00 in0.0 mm
12:50 PM 58.2°F14.6°C 39.1°F3.9°C 49% 5.1 mph WSW8.2 kmh WSW 8.6 mph13.8 kmh 30.47 in1031.8 mb 0.00 in0.0 mm 0.00 in0.0 mm 0.00 in0.0 mm
12:45 PM 58.2°F14.6°C 39.1°F3.9°C 49% 7.1 mph WSW11.4 kmh WSW 11.6 mph18.7 kmh 30.47 in1031.8 mb 0.00 in0.0 mm 0.00 in0.0 mm 0.00 in0.0 mm
12:40 PM 58.2°F14.6°C 39.6°F4.2°C 50% 6.5 mph WSW10.5 kmh WSW 11.6 mph18.7 kmh 30.47 in1031.8 mb 0.00 in0.0 mm 0.00 in0.0 mm 0.00 in0.0 mm
12:35 PM 58.0°F14.4°C 39.5°F4.2°C 50% 5.0 mph W8.0 kmh W 10.1 mph16.3 kmh 30.47 in1031.8 mb 0.00 in0.0 mm 0.00 in0.0 mm 0.00 in0.0 mm
12:30 PM 57.8°F14.3°C 39.3°F4.1°C 50% 4.5 mph WSW7.2 kmh WSW 10.1 mph16.3 kmh 30.47 in1031.8 mb 0.00 in0.0 mm 0.00 in0.0 mm 0.00 in0.0 mm
12:25 PM 57.7°F14.3°C 39.6°F4.2°C 51% 4.8 mph WSW7.7 kmh WSW 10.1 mph16.3 kmh 30.47 in1031.8 mb 0.00 in0.0 mm 0.00 in0.0 mm 0.00 in0.0 mm
12:20 PM 57.5°F14.2°C 39.5°F4.2°C 51% 4.8 mph WSW7.7 kmh WSW 6.2 mph10.0 kmh 30.47 in1031.8 mb 0.00 in0.0 mm 0.00 in0.0 mm 0.00 in0.0 mm
12:15 PM 56.9°F13.8°C 39.5°F4.2°C 52% 4.8 mph WSW7.7 kmh WSW 6.2 mph10.0 kmh 30.47 in1031.8 mb 0.00 in0.0 mm 0.00 in0.0 mm 0.00 in0.0 mm
12:10 PM 57.1°F13.9°C 39.6°F4.2°C 52% 5.5 mph WSW8.9 kmh WSW 8.9 mph14.3 kmh 30.50 in1032.8 mb 0.00 in0.0 mm 0.00 in0.0 mm 0.00 in0.0 mm
12:05 PM 56.9°F13.8°C 40.0°F4.4°C 53% 5.9 mph WSW9.5 kmh WSW 8.9 mph14.3 kmh 30.50 in1032.8 mb 0.00 in0.0 mm 0.00 in0.0 mm 0.00 in0.0 mm
12:00 PM 56.9°F13.8°C 40.0°F4.4°C 53% 5.2 mph WSW8.4 kmh WSW 6.5 mph10.5 kmh 30.50 in1032.8 mb 0.00 in0.0 mm 0.00 in0.0 mm 0.00 in0.0 mm
11:55 AM 56.8°F13.8°C 39.8°F4.3°C 53% 5.2 mph WSW8.4 kmh WSW 8.0 mph12.9 kmh 30.50 in1032.8 mb 0.00 in0.0 mm 0.00 in0.0 mm 0.00 in0.0 mm
11:50 AM 56.6°F13.7°C 40.1°F4.5°C 54% 4.7 mph SW7.6 kmh SW 8.0 mph12.9 kmh 30.50 in1032.8 mb 0.00 in0.0 mm 0.00 in0.0 mm 0.00 in0.0 mm
11:45 AM 56.4°F13.6°C 39.9°F4.4°C 54% 4.2 mph WSW6.8 kmh WSW 6.5 mph10.5 kmh 30.50 in1032.8 mb 0.00 in0.0 mm 0.00 in0.0 mm 0.00 in0.0 mm
11:40 AM 56.2°F13.4°C 39.8°F4.3°C 54% 3.9 mph W6.3 kmh W 5.7 mph9.2 kmh 30.50 in1032.8 mb 0.00 in0.0 mm 0.00 in0.0 mm 0.00 in0.0 mm
11:35 AM 56.2°F13.4°C 39.8°F4.3°C 54% 4.6 mph W7.4 kmh W 5.7 mph9.2 kmh 30.50 in1032.8 mb 0.00 in0.0 mm 0.00 in0.0 mm 0.00 in0.0 mm
11:30 AM 56.2°F13.4°C 40.2°F4.6°C 55% 5.2 mph W8.4 kmh W 7.1 mph11.4 kmh 30.50 in1032.8 mb 0.00 in0.0 mm 0.00 in0.0 mm 0.00 in0.0 mm
11:25 AM 55.8°F13.2°C 39.9°F4.4°C 55% 5.5 mph W8.9 kmh W 7.1 mph11.4 kmh 30.50 in1032.8 mb 0.00 in0.0 mm 0.00 in0.0 mm 0.00 in0.0 mm
11:20 AM 55.7°F13.2°C 40.2°F4.6°C 56% 5.0 mph WSW8.0 kmh WSW 8.0 mph12.9 kmh 30.50 in1032.8 mb 0.00 in0.0 mm 0.00 in0.0 mm 0.00 in0.0 mm
11:15 AM 55.7°F13.2°C 40.2°F4.6°C 56% 4.4 mph WSW7.1 kmh WSW 8.0 mph12.9 kmh 30.50 in1032.8 mb 0.00 in0.0 mm 0.00 in0.0 mm 0.00 in0.0 mm
11:10 AM 55.7°F13.2°C 40.2°F4.6°C 56% 4.6 mph WSW7.4 kmh WSW 8.0 mph12.9 kmh 30.50 in1032.8 mb 0.00 in0.0 mm 0.00 in0.0 mm 0.00 in0.0 mm
11:05 AM 55.3°F12.9°C 40.3°F4.6°C 57% 4.6 mph WSW7.4 kmh WSW 8.3 mph13.4 kmh 30.50 in1032.8 mb 0.00 in0.0 mm 0.00 in0.0 mm 0.00 in0.0 mm
11:00 AM 54.8°F12.7°C 39.8°F4.3°C 57% 4.8 mph W7.7 kmh W 8.3 mph13.4 kmh 30.50 in1032.8 mb 0.00 in0.0 mm 0.00 in0.0 mm 0.00 in0.0 mm
10:55 AM 54.6°F12.6°C 39.7°F4.3°C 57% 4.8 mph WSW7.7 kmh WSW 8.3 mph13.4 kmh 30.50 in1032.8 mb 0.00 in0.0 mm 0.00 in0.0 mm 0.00 in0.0 mm
10:50 AM 54.2°F12.3°C 39.8°F4.3°C 58% 4.3 mph WSW6.9 kmh WSW 6.5 mph10.5 kmh 30.50 in1032.8 mb 0.00 in0.0 mm 0.00 in0.0 mm 0.00 in0.0 mm
10:45 AM 54.0°F12.2°C 39.6°F4.2°C 58% 4.3 mph W6.9 kmh W 7.1 mph11.4 kmh 30.50 in1032.8 mb 0.00 in0.0 mm 0.00 in0.0 mm 0.00 in0.0 mm
10:40 AM 53.9°F12.2°C 39.9°F4.4°C 59% 4.5 mph WSW7.2 kmh WSW 7.1 mph11.4 kmh 30.50 in1032.8 mb 0.00 in0.0 mm 0.00 in0.0 mm 0.00 in0.0 mm
10:35 AM 53.7°F12.1°C 39.7°F4.3°C 59% 4.3 mph WSW6.9 kmh WSW 7.4 mph11.9 kmh 30.50 in1032.8 mb 0.00 in0.0 mm 0.00 in0.0 mm 0.00 in0.0 mm
10:30 AM 53.7°F12.1°C 40.1°F4.5°C 60% 4.8 mph W7.7 kmh W 7.4 mph11.9 kmh 30.50 in1032.8 mb 0.00 in0.0 mm 0.00 in0.0 mm 0.00 in0.0 mm
10:25 AM 53.5°F11.9°C 40.0°F4.4°C 60% 4.9 mph W7.9 kmh W 7.7 mph12.4 kmh 30.50 in1032.8 mb 0.00 in0.0 mm 0.00 in0.0 mm 0.00 in0.0 mm
10:20 AM 53.3°F11.8°C 40.2°F4.6°C 61% 4.9 mph WSW7.9 kmh WSW 8.0 mph12.9 kmh 30.50 in1032.8 mb 0.00 in0.0 mm 0.00 in0.0 mm 0.00 in0.0 mm
10:15 AM 53.3°F11.8°C 40.2°F4.6°C 61% 5.3 mph WSW8.5 kmh WSW 8.0 mph12.9 kmh 30.50 in1032.8 mb 0.00 in0.0 mm 0.00 in0.0 mm 0.00 in0.0 mm
10:10 AM 53.0°F11.7°C 40.3°F4.6°C 62% 5.0 mph WSW8.0 kmh WSW 7.4 mph11.9 kmh 30.50 in1032.8 mb 0.00 in0.0 mm 0.00 in0.0 mm 0.00 in0.0 mm
10:05 AM 53.0°F11.7°C 40.7°F4.8°C 63% 3.4 mph WSW5.5 kmh WSW 7.4 mph11.9 kmh 30.50 in1032.8 mb 0.00 in0.0 mm 0.00 in0.0 mm 0.00 in0.0 mm
10:00 AM 52.6°F11.4°C 40.4°F4.7°C 63% 2.3 mph W3.7 kmh W 4.8 mph7.7 kmh 30.50 in1032.8 mb 0.00 in0.0 mm 0.00 in0.0 mm 0.00 in0.0 mm
09:55 AM 52.3°F11.3°C 40.8°F4.9°C 65% 3.0 mph W4.8 kmh W 5.1 mph8.2 kmh 30.50 in1032.8 mb 0.00 in0.0 mm 0.00 in0.0 mm 0.00 in0.0 mm
09:50 AM 52.1°F11.2°C 40.7°F4.8°C 65% 3.7 mph WSW6.0 kmh WSW 5.7 mph9.2 kmh 30.50 in1032.8 mb 0.00 in0.0 mm 0.00 in0.0 mm 0.00 in0.0 mm
09:45 AM 52.1°F11.2°C 41.1°F5.1°C 66% 3.8 mph WSW6.1 kmh WSW 5.7 mph9.2 kmh 30.50 in1032.8 mb 0.00 in0.0 mm 0.00 in0.0 mm 0.00 in0.0 mm
09:40 AM 51.7°F10.9°C 41.1°F5.1°C 67% 3.8 mph WSW6.1 kmh WSW 5.4 mph8.7 kmh 30.50 in1032.8 mb 0.00 in0.0 mm 0.00 in0.0 mm 0.00 in0.0 mm
09:35 AM 51.3°F10.7°C 41.1°F5.1°C 68% 4.2 mph WSW6.8 kmh WSW 6.2 mph10.0 kmh 30.50 in1032.8 mb 0.00 in0.0 mm 0.00 in0.0 mm 0.00 in0.0 mm
09:30 AM 51.2°F10.7°C 41.3°F5.2°C 69% 4.5 mph WSW7.2 kmh WSW 6.2 mph10.0 kmh 30.50 in1032.8 mb 0.00 in0.0 mm 0.00 in0.0 mm 0.00 in0.0 mm
09:25 AM 50.8°F10.4°C 41.4°F5.2°C 70% 2.6 mph WSW4.2 kmh WSW 5.7 mph9.2 kmh 30.50 in1032.8 mb 0.00 in0.0 mm 0.00 in0.0 mm 0.00 in0.0 mm
09:20 AM 50.5°F10.3°C 41.4°F5.2°C 71% 1.0 mph WSW1.6 kmh WSW 4.5 mph7.2 kmh 30.53 in1033.9 mb 0.00 in0.0 mm 0.00 in0.0 mm 0.00 in0.0 mm
09:15 AM 49.5°F9.7°C 41.2°F5.1°C 73% 1.3 mph WSW2.1 kmh WSW 4.2 mph6.8 kmh 30.53 in1033.9 mb 0.00 in0.0 mm 0.00 in0.0 mm 0.00 in0.0 mm
09:10 AM 49.4°F9.7°C 41.1°F5.1°C 73% 1.5 mph W2.4 kmh W 4.2 mph6.8 kmh 30.53 in1033.9 mb 0.00 in0.0 mm 0.00 in0.0 mm 0.00 in0.0 mm
09:05 AM 48.8°F9.3°C 40.9°F4.9°C 74% 1.9 mph W3.1 kmh W 3.9 mph6.3 kmh 30.50 in1032.8 mb 0.00 in0.0 mm 0.00 in0.0 mm 0.00 in0.0 mm
09:00 AM 47.8°F8.8°C 40.2°F4.6°C 75% 1.4 mph WSW2.3 kmh WSW 3.9 mph6.3 kmh 30.50 in1032.8 mb 0.00 in0.0 mm 0.00 in0.0 mm 0.00 in0.0 mm
08:55 AM 46.8°F8.2°C 40.0°F4.4°C 77% 1.2 mph SW1.9 kmh SW 3.9 mph6.3 kmh 30.50 in1032.8 mb 0.00 in0.0 mm 0.00 in0.0 mm 0.00 in0.0 mm
08:50 AM 46.1°F7.8°C 39.3°F4.1°C 77% 0.4 mph S0.6 kmh S 1.5 mph2.4 kmh 30.50 in1032.8 mb 0.00 in0.0 mm 0.00 in0.0 mm 0.00 in0.0 mm
08:45 AM 44.9°F7.2°C 38.8°F3.8°C 79% Calm Calm -- 30.50 in1032.8 mb 0.00 in0.0 mm 0.00 in0.0 mm 0.00 in0.0 mm
08:40 AM 44.7°F7.1°C 38.9°F3.8°C 80% Calm Calm -- 30.50 in1032.8 mb 0.00 in0.0 mm 0.00 in0.0 mm 0.00 in0.0 mm
08:35 AM 43.6°F6.4°C 38.2°F3.4°C 81% Calm Calm -- 30.50 in1032.8 mb 0.00 in0.0 mm 0.00 in0.0 mm 0.00 in0.0 mm
08:30 AM 42.5°F5.8°C 37.7°F3.2°C 83% Calm Calm -- 30.50 in1032.8 mb 0.00 in0.0 mm 0.00 in0.0 mm 0.00 in0.0 mm
08:25 AM 41.3°F5.2°C 36.8°F2.7°C 84% Calm Calm -- 30.50 in1032.8 mb 0.00 in0.0 mm 0.00 in0.0 mm 0.00 in0.0 mm
08:20 AM 40.7°F4.8°C 36.3°F2.4°C 84% Calm Calm -- 30.50 in1032.8 mb 0.00 in0.0 mm 0.00 in0.0 mm 0.00 in0.0 mm
08:15 AM 39.8°F4.3°C 35.7°F2.1°C 85% Calm Calm -- 30.50 in1032.8 mb 0.00 in0.0 mm 0.00 in0.0 mm 0.00 in0.0 mm
08:10 AM 38.8°F3.8°C 34.6°F1.4°C 85% Calm Calm -- 30.50 in1032.8 mb 0.00 in0.0 mm 0.00 in0.0 mm 0.00 in0.0 mm
08:05 AM 37.5°F3.1°C 33.4°F0.8°C 85% 0.2 mph SE0.3 kmh SE 1.5 mph2.4 kmh 30.50 in1032.8 mb 0.00 in0.0 mm 0.00 in0.0 mm 0.00 in0.0 mm
08:00 AM 37.1°F2.8°C 33.0°F0.6°C 85% 0.6 mph SE1.0 kmh SE 2.7 mph4.3 kmh 30.50 in1032.8 mb 0.00 in0.0 mm 0.00 in0.0 mm 0.00 in0.0 mm
07:55 AM 36.0°F2.2°C 32.0°F0.0°C 85% 0.4 mph SE0.6 kmh SE 2.7 mph4.3 kmh 30.50 in1032.8 mb 0.00 in0.0 mm 0.00 in0.0 mm 0.00 in0.0 mm
07:50 AM 35.7°F2.1°C 31.3°F-0.4°C 84% Calm Calm -- 30.50 in1032.8 mb 0.00 in0.0 mm 0.00 in0.0 mm 0.00 in0.0 mm
07:45 AM 35.2°F1.8°C 30.8°F-0.7°C 84% Calm Calm -- 30.50 in1032.8 mb 0.00 in0.0 mm 0.00 in0.0 mm 0.00 in0.0 mm
07:40 AM 34.4°F1.3°C 30.1°F-1.1°C 84% Calm Calm -- 30.50 in1032.8 mb 0.00 in0.0 mm 0.00 in0.0 mm 0.00 in0.0 mm
07:35 AM 34.3°F1.3°C 29.9°F-1.2°C 84% Calm Calm -- 30.50 in1032.8 mb 0.00 in0.0 mm 0.00 in0.0 mm 0.00 in0.0 mm
07:30 AM 33.5°F0.8°C 28.9°F-1.7°C 83% Calm Calm -- 30.50 in1032.8 mb 0.00 in0.0 mm 0.00 in0.0 mm 0.00 in0.0 mm
07:25 AM 33.2°F0.7°C 28.6°F-1.9°C 83% Calm Calm -- 30.50 in1032.8 mb 0.00 in0.0 mm 0.00 in0.0 mm 0.00 in0.0 mm
07:20 AM 33.0°F0.6°C 28.4°F-2.0°C 83% Calm Calm -- 30.50 in1032.8 mb 0.00 in0.0 mm 0.00 in0.0 mm 0.00 in0.0 mm
07:15 AM 32.6°F0.3°C 27.7°F-2.4°C 82% Calm Calm -- 30.50 in1032.8 mb 0.00 in0.0 mm 0.00 in0.0 mm 0.00 in0.0 mm
07:10 AM 32.5°F0.3°C 27.6°F-2.4°C 82% Calm Calm -- 30.50 in1032.8 mb 0.00 in0.0 mm 0.00 in0.0 mm 0.00 in0.0 mm
07:05 AM 32.1°F0.1°C 27.2°F-2.7°C 82% Calm Calm -- 30.50 in1032.8 mb 0.00 in0.0 mm 0.00 in0.0 mm 0.00 in0.0 mm
07:00 AM 31.9°F-0.1°C 27.0°F-2.8°C 82% Calm Calm -- 30.50 in1032.8 mb 0.00 in0.0 mm 0.00 in0.0 mm 0.00 in0.0 mm
06:55 AM 31.7°F-0.2°C 26.6°F-3.0°C 81% Calm Calm -- 30.50 in1032.8 mb 0.00 in0.0 mm 0.00 in0.0 mm 0.00 in0.0 mm
06:50 AM 31.5°F-0.3°C 26.4°F-3.1°C 81% Calm Calm -- 30.50 in1032.8 mb 0.00 in0.0 mm 0.00 in0.0 mm 0.00 in0.0 mm
06:45 AM 31.4°F-0.3°C 26.2°F-3.2°C 81% Calm Calm -- 30.50 in1032.8 mb 0.00 in0.0 mm 0.00 in0.0 mm 0.00 in0.0 mm
06:40 AM 31.0°F-0.6°C 25.6°F-3.6°C 80% Calm Calm -- 30.50 in1032.8 mb 0.00 in0.0 mm 0.00 in0.0 mm 0.00 in0.0 mm
06:35 AM 31.0°F-0.6°C 25.6°F-3.6°C 80% Calm Calm -- 30.47 in1031.8 mb 0.00 in0.0 mm 0.00 in0.0 mm 0.00 in0.0 mm
06:30 AM 30.8°F-0.7°C 25.4°F-3.7°C 80% Calm Calm -- 30.47 in1031.8 mb 0.00 in0.0 mm 0.00 in0.0 mm 0.00 in0.0 mm
06:25 AM 30.8°F-0.7°C 25.4°F-3.7°C 80% Calm Calm -- 30.47 in1031.8 mb 0.00 in0.0 mm 0.00 in0.0 mm 0.00 in0.0 mm
06:20 AM 30.6°F-0.8°C 25.2°F-3.8°C 80% Calm Calm -- 30.47 in1031.8 mb 0.00 in0.0 mm 0.00 in0.0 mm 0.00 in0.0 mm
06:15 AM 30.5°F-0.8°C 24.7°F-4.1°C 79% Calm Calm -- 30.47 in1031.8 mb 0.00 in0.0 mm 0.00 in0.0 mm 0.00 in0.0 mm
06:10 AM 30.6°F-0.8°C 24.9°F-3.9°C 79% Calm Calm -- 30.47 in1031.8 mb 0.00 in0.0 mm 0.00 in0.0 mm 0.00 in0.0 mm
06:05 AM 30.5°F-0.8°C 24.7°F-4.1°C 79% Calm Calm -- 30.47 in1031.8 mb 0.00 in0.0 mm 0.00 in0.0 mm 0.00 in0.0 mm
06:00 AM 30.5°F-0.8°C 24.7°F-4.1°C 79% Calm Calm -- 30.47 in1031.8 mb 0.00 in0.0 mm 0.00 in0.0 mm 0.00 in0.0 mm
05:55 AM 30.5°F-0.8°C 24.7°F-4.1°C 79% Calm Calm -- 30.47 in1031.8 mb 0.00 in0.0 mm 0.00 in0.0 mm 0.00 in0.0 mm
05:50 AM 30.5°F-0.8°C 24.7°F-4.1°C 79% Calm Calm -- 30.47 in1031.8 mb 0.00 in0.0 mm 0.00 in0.0 mm 0.00 in0.0 mm
05:45 AM 30.5°F-0.8°C 24.7°F-4.1°C 79% Calm Calm -- 30.47 in1031.8 mb 0.00 in0.0 mm 0.00 in0.0 mm 0.00 in0.0 mm
05:40 AM 30.5°F-0.8°C 24.7°F-4.1°C 79% Calm Calm -- 30.47 in1031.8 mb 0.00 in0.0 mm 0.00 in0.0 mm 0.00 in0.0 mm
05:35 AM 30.5°F-0.8°C 24.4°F-4.2°C 78% Calm Calm -- 30.50 in1032.8 mb 0.00 in0.0 mm 0.00 in0.0 mm 0.00 in0.0 mm
05:25 AM 30.6°F-0.8°C 24.6°F-4.1°C 78% Calm Calm -- 30.50 in1032.8 mb 0.00 in0.0 mm 0.00 in0.0 mm 0.00 in0.0 mm
05:20 AM 30.6°F-0.8°C 24.6°F-4.1°C 78% Calm Calm -- 30.50 in1032.8 mb 0.00 in0.0 mm 0.00 in0.0 mm 0.00 in0.0 mm
05:15 AM 30.8°F-0.7°C 24.8°F-4.0°C 78% Calm Calm -- 30.50 in1032.8 mb 0.00 in0.0 mm 0.00 in0.0 mm 0.00 in0.0 mm
05:10 AM 31.0°F-0.6°C 25.0°F-3.9°C 78% Calm Calm -- 30.50 in1032.8 mb 0.00 in0.0 mm 0.00 in0.0 mm 0.00 in0.0 mm
05:05 AM 31.2°F-0.4°C 25.1°F-3.8°C 78% 0.4 mph SE0.6 kmh SE 2.1 mph3.4 kmh 30.50 in1032.8 mb 0.00 in0.0 mm 0.00 in0.0 mm 0.00 in0.0 mm
05:00 AM 31.2°F-0.4°C 25.1°F-3.8°C 78% 0.5 mph SE0.8 kmh SE 2.1 mph3.4 kmh 30.50 in1032.8 mb 0.00 in0.0 mm 0.00 in0.0 mm 0.00 in0.0 mm
04:55 AM 31.0°F-0.6°C 25.0°F-3.9°C 78% 0.3 mph SE0.5 kmh SE 2.1 mph3.4 kmh 30.50 in1032.8 mb 0.00 in0.0 mm 0.00 in0.0 mm 0.00 in0.0 mm
04:50 AM 31.2°F-0.4°C 25.1°F-3.8°C 78% Calm Calm -- 30.47 in1031.8 mb 0.00 in0.0 mm 0.00 in0.0 mm 0.00 in0.0 mm
04:45 AM 31.2°F-0.4°C 25.1°F-3.8°C 78% Calm Calm -- 30.47 in1031.8 mb 0.00 in0.0 mm 0.00 in0.0 mm 0.00 in0.0 mm
04:40 AM 31.2°F-0.4°C 25.1°F-3.8°C 78% Calm Calm -- 30.47 in1031.8 mb 0.00 in0.0 mm 0.00 in0.0 mm 0.00 in0.0 mm
04:35 AM 31.4°F-0.3°C 25.3°F-3.7°C 78% Calm Calm -- 30.47 in1031.8 mb 0.00 in0.0 mm 0.00 in0.0 mm 0.00 in0.0 mm
04:30 AM 31.4°F-0.3°C 25.3°F-3.7°C 78% Calm Calm -- 30.47 in1031.8 mb 0.00 in0.0 mm 0.00 in0.0 mm 0.00 in0.0 mm
04:25 AM 31.5°F-0.3°C 25.5°F-3.6°C 78% Calm Calm -- 30.47 in1031.8 mb 0.00 in0.0 mm 0.00 in0.0 mm 0.00 in0.0 mm
04:20 AM 31.5°F-0.3°C 25.5°F-3.6°C 78% Calm Calm -- 30.50 in1032.8 mb 0.00 in0.0 mm 0.00 in0.0 mm 0.00 in0.0 mm
04:15 AM 31.5°F-0.3°C 25.5°F-3.6°C 78% Calm Calm -- 30.50 in1032.8 mb 0.00 in0.0 mm 0.00 in0.0 mm 0.00 in0.0 mm
04:10 AM 31.7°F-0.2°C 25.3°F-3.7°C 77% Calm Calm -- 30.50 in1032.8 mb 0.00 in0.0 mm 0.00 in0.0 mm 0.00 in0.0 mm
04:05 AM 31.7°F-0.2°C 25.3°F-3.7°C 77% Calm Calm -- 30.50 in1032.8 mb 0.00 in0.0 mm 0.00 in0.0 mm 0.00 in0.0 mm
04:00 AM 31.9°F-0.1°C 25.5°F-3.6°C 77% Calm Calm -- 30.50 in1032.8 mb 0.00 in0.0 mm 0.00 in0.0 mm 0.00 in0.0 mm
03:55 AM 31.9°F-0.1°C 25.5°F-3.6°C 77% Calm Calm -- 30.50 in1032.8 mb 0.00 in0.0 mm 0.00 in0.0 mm 0.00 in0.0 mm
03:50 AM 31.9°F-0.1°C 25.5°F-3.6°C 77% Calm Calm -- 30.50 in1032.8 mb 0.00 in0.0 mm 0.00 in0.0 mm 0.00 in0.0 mm
03:45 AM 31.9°F-0.1°C 25.5°F-3.6°C 77% Calm Calm -- 30.50 in1032.8 mb 0.00 in0.0 mm 0.00 in0.0 mm 0.00 in0.0 mm
03:40 AM 32.1°F0.1°C 25.7°F-3.5°C 77% Calm Calm -- 30.50 in1032.8 mb 0.00 in0.0 mm 0.00 in0.0 mm 0.00 in0.0 mm
03:35 AM 32.1°F0.1°C 25.7°F-3.5°C 77% Calm Calm -- 30.50 in1032.8 mb 0.00 in0.0 mm 0.00 in0.0 mm 0.00 in0.0 mm
03:30 AM 32.3°F0.2°C 25.9°F-3.4°C 77% Calm Calm -- 30.50 in1032.8 mb 0.00 in0.0 mm 0.00 in0.0 mm 0.00 in0.0 mm
03:25 AM 32.5°F0.3°C 26.0°F-3.3°C 77% Calm Calm -- 30.50 in1032.8 mb 0.00 in0.0 mm 0.00 in0.0 mm 0.00 in0.0 mm
03:20 AM 32.6°F0.3°C 25.9°F-3.4°C 76% Calm Calm -- 30.50 in1032.8 mb 0.00 in0.0 mm 0.00 in0.0 mm 0.00 in0.0 mm
03:15 AM 32.6°F0.3°C 25.9°F-3.4°C 76% Calm Calm -- 30.50 in1032.8 mb 0.00 in0.0 mm 0.00 in0.0 mm 0.00 in0.0 mm
03:10 AM 32.6°F0.3°C 25.9°F-3.4°C 76% Calm Calm -- 30.50 in1032.8 mb 0.00 in0.0 mm 0.00 in0.0 mm 0.00 in0.0 mm
03:05 AM 32.8°F0.4°C 26.1°F-3.3°C 76% Calm Calm -- 30.50 in1032.8 mb 0.00 in0.0 mm 0.00 in0.0 mm 0.00 in0.0 mm
03:00 AM 32.8°F0.4°C 26.1°F-3.3°C 76% Calm Calm -- 30.50 in1032.8 mb 0.00 in0.0 mm 0.00 in0.0 mm 0.00 in0.0 mm
02:55 AM 32.8°F0.4°C 26.1°F-3.3°C 76% Calm Calm -- 30.50 in1032.8 mb 0.00 in0.0 mm 0.00 in0.0 mm 0.00 in0.0 mm
02:50 AM 33.0°F0.6°C 26.2°F-3.2°C 76% Calm Calm -- 30.50 in1032.8 mb 0.00 in0.0 mm 0.00 in0.0 mm 0.00 in0.0 mm
02:45 AM 33.2°F0.7°C 26.4°F-3.1°C 76% Calm Calm -- 30.50 in1032.8 mb 0.00 in0.0 mm 0.00 in0.0 mm 0.00 in0.0 mm
02:40 AM 33.3°F0.7°C 26.6°F-3.0°C 76% Calm Calm -- 30.50 in1032.8 mb 0.00 in0.0 mm 0.00 in0.0 mm 0.00 in0.0 mm
02:35 AM 33.3°F0.7°C 26.6°F-3.0°C 76% 0.2 mph E0.3 kmh E 1.5 mph2.4 kmh 30.50 in1032.8 mb 0.00 in0.0 mm 0.00 in0.0 mm 0.00 in0.0 mm
02:30 AM 33.3°F0.7°C 26.6°F-3.0°C 76% 0.2 mph E0.3 kmh E 1.5 mph2.4 kmh 30.50 in1032.8 mb 0.00 in0.0 mm 0.00 in0.0 mm 0.00 in0.0 mm
02:25 AM 33.2°F0.7°C 26.1°F-3.3°C 75% Calm Calm -- 30.50 in1032.8 mb 0.00 in0.0 mm 0.00 in0.0 mm 0.00 in0.0 mm
02:20 AM 33.3°F0.7°C 26.3°F-3.2°C 75% Calm Calm -- 30.50 in1032.8 mb 0.00 in0.0 mm 0.00 in0.0 mm 0.00 in0.0 mm
02:15 AM 33.3°F0.7°C 26.3°F-3.2°C 75% Calm Calm -- 30.50 in1032.8 mb 0.00 in0.0 mm 0.00 in0.0 mm 0.00 in0.0 mm
02:10 AM 33.3°F0.7°C 26.3°F-3.2°C 75% Calm Calm -- 30.50 in1032.8 mb 0.00 in0.0 mm 0.00 in0.0 mm 0.00 in0.0 mm
02:05 AM 33.3°F0.7°C 26.3°F-3.2°C 75% Calm Calm -- 30.50 in1032.8 mb 0.00 in0.0 mm 0.00 in0.0 mm 0.00 in0.0 mm
02:00 AM 33.3°F0.7°C 26.0°F-3.3°C 74% Calm Calm -- 30.50 in1032.8 mb 0.00 in0.0 mm 0.00 in0.0 mm 0.00 in0.0 mm
01:55 AM 33.5°F0.8°C 26.1°F-3.3°C 74% Calm Calm -- 30.50 in1032.8 mb 0.00 in0.0 mm 0.00 in0.0 mm 0.00 in0.0 mm
01:50 AM 33.7°F0.9°C 26.3°F-3.2°C 74% Calm Calm -- 30.50 in1032.8 mb 0.00 in0.0 mm 0.00 in0.0 mm 0.00 in0.0 mm
01:45 AM 33.9°F1.1°C 26.5°F-3.1°C 74% Calm Calm -- 30.50 in1032.8 mb 0.00 in0.0 mm 0.00 in0.0 mm 0.00 in0.0 mm
01:40 AM 34.1°F1.2°C 26.6°F-3.0°C 74% 0.1 mph E0.2 kmh E 1.2 mph1.9 kmh 30.50 in1032.8 mb 0.00 in0.0 mm 0.00 in0.0 mm 0.00 in0.0 mm
01:35 AM 34.4°F1.3°C 27.0°F-2.8°C 74% 0.2 mph E0.3 kmh E 1.2 mph1.9 kmh 30.50 in1032.8 mb 0.00 in0.0 mm 0.00 in0.0 mm 0.00 in0.0 mm
01:30 AM 34.4°F1.3°C 27.0°F-2.8°C 74% 0.1 mph E0.2 kmh E 1.2 mph1.9 kmh 30.50 in1032.8 mb 0.00 in0.0 mm 0.00 in0.0 mm 0.00 in0.0 mm
01:25 AM 34.4°F1.3°C 27.0°F-2.8°C 74% 0.1 mph E0.2 kmh E 1.8 mph2.9 kmh 30.50 in1032.8 mb 0.00 in0.0 mm 0.00 in0.0 mm 0.00 in0.0 mm
01:20 AM 34.6°F1.4°C 26.8°F-2.9°C 73% 0.5 mph E0.8 kmh E 1.8 mph2.9 kmh 30.50 in1032.8 mb 0.00 in0.0 mm 0.00 in0.0 mm 0.00 in0.0 mm
01:15 AM 35.0°F1.7°C 27.2°F-2.7°C 73% 0.3 mph E0.5 kmh E 1.8 mph2.9 kmh 30.50 in1032.8 mb 0.00 in0.0 mm 0.00 in0.0 mm 0.00 in0.0 mm
01:10 AM 35.2°F1.8°C 27.4°F-2.6°C 73% Calm Calm -- 30.50 in1032.8 mb 0.00 in0.0 mm 0.00 in0.0 mm 0.00 in0.0 mm
01:05 AM 35.2°F1.8°C 27.4°F-2.6°C 73% Calm Calm -- 30.50 in1032.8 mb 0.00 in0.0 mm 0.00 in0.0 mm 0.00 in0.0 mm
01:00 AM 35.5°F1.9°C 27.7°F-2.4°C 73% 0.1 mph E0.2 kmh E 1.2 mph1.9 kmh 30.50 in1032.8 mb 0.00 in0.0 mm 0.00 in0.0 mm 0.00 in0.0 mm
12:55 AM 35.5°F1.9°C 27.7°F-2.4°C 73% 0.6 mph E1.0 kmh E 2.1 mph3.4 kmh 30.50 in1032.8 mb 0.00 in0.0 mm 0.00 in0.0 mm 0.00 in0.0 mm
12:50 AM 35.7°F2.1°C 27.9°F-2.3°C 73% 0.8 mph E1.3 kmh E 2.7 mph4.3 kmh 30.50 in1032.8 mb 0.00 in0.0 mm 0.00 in0.0 mm 0.00 in0.0 mm
12:45 AM 35.9°F2.2°C 28.1°F-2.2°C 73% 1.1 mph E1.8 kmh E 3.6 mph5.8 kmh 30.50 in1032.8 mb 0.00 in0.0 mm 0.00 in0.0 mm 0.00 in0.0 mm
12:40 AM 36.0°F2.2°C 28.2°F-2.1°C 73% 1.6 mph E2.6 kmh E 3.6 mph5.8 kmh 30.50 in1032.8 mb 0.00 in0.0 mm 0.00 in0.0 mm 0.00 in0.0 mm
12:35 AM 36.2°F2.3°C 28.1°F-2.2°C 72% 1.0 mph E1.6 kmh E 3.0 mph4.8 kmh 30.50 in1032.8 mb 0.00 in0.0 mm 0.00 in0.0 mm 0.00 in0.0 mm
12:30 AM 36.2°F2.3°C 28.1°F-2.2°C 72% 0.6 mph E1.0 kmh E 2.1 mph3.4 kmh 30.50 in1032.8 mb 0.00 in0.0 mm 0.00 in0.0 mm 0.00 in0.0 mm
12:25 AM 36.2°F2.3°C 28.1°F-2.2°C 72% 1.2 mph E1.9 kmh E 3.0 mph4.8 kmh 30.50 in1032.8 mb 0.00 in0.0 mm 0.00 in0.0 mm 0.00 in0.0 mm
12:20 AM 36.4°F2.4°C 28.2°F-2.1°C 72% 1.7 mph E2.7 kmh E 3.0 mph4.8 kmh 30.50 in1032.8 mb 0.00 in0.0 mm 0.00 in0.0 mm 0.00 in0.0 mm
12:15 AM 36.6°F2.6°C 28.1°F-2.2°C 71% 1.7 mph E2.7 kmh E 2.7 mph4.3 kmh 30.50 in1032.8 mb 0.00 in0.0 mm 0.00 in0.0 mm 0.00 in0.0 mm
12:10 AM 36.8°F2.7°C 28.2°F-2.1°C 71% 1.8 mph E2.9 kmh E 3.6 mph5.8 kmh 30.50 in1032.8 mb 0.00 in0.0 mm 0.00 in0.0 mm 0.00 in0.0 mm
12:05 AM 37.0°F2.8°C 28.4°F-2.0°C 71% 1.8 mph E2.9 kmh E 3.6 mph5.8 kmh 30.50 in1032.8 mb 0.00 in0.0 mm 0.00 in0.0 mm 0.00 in0.0 mm
12:00 AM 37.0°F2.8°C 28.4°F-2.0°C 71% 2.0 mph E3.2 kmh E 3.9 mph6.3 kmh 30.50 in1032.8 mb 0.00 in0.0 mm 0.00 in0.0 mm 0.00 in0.0 mm